KSCR/SCR METAR and TAF weather

Enter ICAO airport designator
Station Type Date Time Source
KSCR METAR 2019/04/25 13:50 UTC NOAA

KSCR 251350Z AUTO 00000KT 10SM CLR 20/15 A2993 RMK AO2 T02030145


Station Type Date Time Source
KSCR Decoded METAR 2019/04/25 13:50 UTC NOAA

Station name not available
Apr 25, 2019 - 09:50 AM EDT / 2019.04.25 1350 UTC
Wind: Calm:0
Visibility: 10 mile(s):0
Sky conditions: clear
Temperature: 68.5 F (20.3 C)
Dew Point: 58.1 F (14.5 C)
Relative Humidity: 69%
Pressure (altimeter): 29.93 in. Hg (1013 hPa)
ob: KSCR 251350Z AUTO 00000KT 10SM CLR 20/15 A2993 RMK AO2 T02030145
cycle: 14

Station Type Date Time Source
KSCR TAF UTC NOAA

Error!

Example: see airport list